Home

Weather

KSLC Current Conditions

KSLC 230454Z 19003KT 10SM BKN095 14/01 A3037 RMK AO2 SLP260 T01390006 $

KSLC Aviation Forecast

TAF KSLC 230522Z 2306/2412 33006KT P6SM BKN090 FM231600 34009KT P6SM SCT090 FM240100 36005KT P6SM SKC


57° F
Mostly Cloudy
Mostly Cloudy

Partly Cloudy
Sunday
Partly Cloudy
High 68°/Low 47°
0%
Clear
Monday
Clear
High 63°/Low 40°
0%
Clear
Tuesday
Clear
High 62°/Low 42°
0%
Clear
Wednesday
Clear
High 67°/Low 46°
0%